sensor_id;sensor_type;location;lat;lon;timestamp;P1;durP1;ratioP1;P2;durP2;ratioP2
41305;SDS011;27051;50.376;19.152;2023-04-24T00:01:00;30.00;;;16.90;;
41305;SDS011;27051;50.376;19.152;2023-04-24T00:03:26;30.20;;;17.40;;
41305;SDS011;27051;50.376;19.152;2023-04-24T00:05:53;29.80;;;17.10;;
41305;SDS011;27051;50.376;19.152;2023-04-24T00:08:20;28.10;;;16.90;;
41305;SDS011;27051;50.376;19.152;2023-04-24T00:10:47;28.60;;;17.60;;
41305;SDS011;27051;50.376;19.152;2023-04-24T00:13:13;31.20;;;18.00;;
41305;SDS011;27051;50.376;19.152;2023-04-24T00:15:46;27.70;;;17.80;;
41305;SDS011;27051;50.376;19.152;2023-04-24T00:18:12;36.10;;;17.00;;
41305;SDS011;27051;50.376;19.152;2023-04-24T00:20:39;29.70;;;17.30;;
41305;SDS011;27051;50.376;19.152;2023-04-24T00:23:05;30.50;;;17.40;;
41305;SDS011;27051;50.376;19.152;2023-04-24T00:25:32;27.50;;;16.90;;
41305;SDS011;27051;50.376;19.152;2023-04-24T00:27:58;29.90;;;16.60;;
41305;SDS011;27051;50.376;19.152;2023-04-24T00:30:25;32.40;;;17.60;;
41305;SDS011;27051;50.376;19.152;2023-04-24T00:32:51;27.90;;;17.00;;
41305;SDS011;27051;50.376;19.152;2023-04-24T00:35:18;32.30;;;17.30;;
41305;SDS011;27051;50.376;19.152;2023-04-24T00:37:44;28.40;;;16.70;;
41305;SDS011;27051;50.376;19.152;2023-04-24T00:40:10;27.80;;;15.90;;
41305;SDS011;27051;50.376;19.152;2023-04-24T00:42:37;28.20;;;17.30;;
41305;SDS011;27051;50.376;19.152;2023-04-24T00:45:05;29.00;;;17.30;;
41305;SDS011;27051;50.376;19.152;2023-04-24T00:47:32;26.70;;;16.30;;
41305;SDS011;27051;50.376;19.152;2023-04-24T00:50:05;31.10;;;17.70;;
41305;SDS011;27051;50.376;19.152;2023-04-24T00:52:33;28.90;;;16.80;;
41305;SDS011;27051;50.376;19.152;2023-04-24T00:54:59;31.00;;;18.40;;
41305;SDS011;27051;50.376;19.152;2023-04-24T00:57:26;26.10;;;16.10;;
41305;SDS011;27051;50.376;19.152;2023-04-24T00:59:52;28.80;;;17.10;;
41305;SDS011;27051;50.376;19.152;2023-04-24T01:02:19;27.30;;;17.50;;
41305;SDS011;27051;50.376;19.152;2023-04-24T01:04:47;26.00;;;15.80;;
41305;SDS011;27051;50.376;19.152;2023-04-24T01:07:20;26.70;;;16.80;;
41305;SDS011;27051;50.376;19.152;2023-04-24T01:09:47;27.00;;;16.40;;
41305;SDS011;27051;50.376;19.152;2023-04-24T01:12:15;29.50;;;16.40;;
41305;SDS011;27051;50.376;19.152;2023-04-24T01:14:41;27.40;;;16.50;;
41305;SDS011;27051;50.376;19.152;2023-04-24T01:17:08;26.90;;;16.40;;
41305;SDS011;27051;50.376;19.152;2023-04-24T01:19:35;26.80;;;16.70;;
41305;SDS011;27051;50.376;19.152;2023-04-24T01:22:02;31.10;;;16.40;;
41305;SDS011;27051;50.376;19.152;2023-04-24T01:24:29;29.90;;;16.00;;
41305;SDS011;27051;50.376;19.152;2023-04-24T01:26:56;25.00;;;16.30;;
41305;SDS011;27051;50.376;19.152;2023-04-24T01:29:22;29.30;;;16.90;;
41305;SDS011;27051;50.376;19.152;2023-04-24T01:31:49;25.60;;;16.50;;
41305;SDS011;27051;50.376;19.152;2023-04-24T01:34:16;29.30;;;17.70;;
41305;SDS011;27051;50.376;19.152;2023-04-24T01:36:43;25.70;;;16.40;;
41305;SDS011;27051;50.376;19.152;2023-04-24T01:39:12;29.60;;;16.80;;
41305;SDS011;27051;50.376;19.152;2023-04-24T01:41:39;28.30;;;16.30;;
41305;SDS011;27051;50.376;19.152;2023-04-24T01:44:05;33.80;;;17.80;;
41305;SDS011;27051;50.376;19.152;2023-04-24T01:46:32;32.60;;;17.30;;
41305;SDS011;27051;50.376;19.152;2023-04-24T01:48:59;28.90;;;16.20;;
41305;SDS011;27051;50.376;19.152;2023-04-24T01:51:26;29.50;;;17.70;;
41305;SDS011;27051;50.376;19.152;2023-04-24T01:53:52;34.50;;;19.40;;
41305;SDS011;27051;50.376;19.152;2023-04-24T01:56:22;35.10;;;18.60;;
41305;SDS011;27051;50.376;19.152;2023-04-24T01:58:49;35.10;;;18.70;;
41305;SDS011;27051;50.376;19.152;2023-04-24T02:01:18;37.30;;;17.80;;
41305;SDS011;27051;50.376;19.152;2023-04-24T02:03:46;46.40;;;22.60;;
41305;SDS011;27051;50.376;19.152;2023-04-24T02:06:13;45.70;;;21.30;;
41305;SDS011;27051;50.376;19.152;2023-04-24T02:08:39;48.00;;;22.00;;
41305;SDS011;27051;50.376;19.152;2023-04-24T02:11:05;51.80;;;23.60;;
41305;SDS011;27051;50.376;19.152;2023-04-24T02:13:32;45.70;;;22.20;;
41305;SDS011;27051;50.376;19.152;2023-04-24T02:15:58;40.10;;;20.50;;
41305;SDS011;27051;50.376;19.152;2023-04-24T02:18:25;40.40;;;19.80;;
41305;SDS011;27051;50.376;19.152;2023-04-24T02:20:51;40.10;;;19.70;;
41305;SDS011;27051;50.376;19.152;2023-04-24T02:23:18;38.20;;;19.30;;
41305;SDS011;27051;50.376;19.152;2023-04-24T02:25:44;46.20;;;19.80;;
41305;SDS011;27051;50.376;19.152;2023-04-24T02:28:11;44.00;;;20.20;;
41305;SDS011;27051;50.376;19.152;2023-04-24T02:30:37;37.10;;;17.20;;
41305;SDS011;27051;50.376;19.152;2023-04-24T02:33:04;33.70;;;17.40;;
41305;SDS011;27051;50.376;19.152;2023-04-24T02:35:30;32.30;;;16.70;;
41305;SDS011;27051;50.376;19.152;2023-04-24T02:37:57;34.00;;;16.60;;
41305;SDS011;27051;50.376;19.152;2023-04-24T02:40:23;29.70;;;15.50;;
41305;SDS011;27051;50.376;19.152;2023-04-24T02:42:49;27.90;;;15.10;;
41305;SDS011;27051;50.376;19.152;2023-04-24T02:45:16;33.50;;;16.50;;
41305;SDS011;27051;50.376;19.152;2023-04-24T02:47:43;35.90;;;17.20;;
41305;SDS011;27051;50.376;19.152;2023-04-24T02:50:09;33.60;;;15.90;;
41305;SDS011;27051;50.376;19.152;2023-04-24T02:52:36;32.20;;;16.10;;
41305;SDS011;27051;50.376;19.152;2023-04-24T02:55:02;32.60;;;16.30;;
41305;SDS011;27051;50.376;19.152;2023-04-24T02:57:29;32.50;;;16.30;;
41305;SDS011;27051;50.376;19.152;2023-04-24T02:59:55;28.10;;;15.80;;
41305;SDS011;27051;50.376;19.152;2023-04-24T03:02:22;25.40;;;14.60;;
41305;SDS011;27051;50.376;19.152;2023-04-24T03:04:48;26.60;;;14.50;;
41305;SDS011;27051;50.376;19.152;2023-04-24T03:07:14;24.50;;;12.70;;
41305;SDS011;27051;50.376;19.152;2023-04-24T03:09:41;29.00;;;13.40;;
41305;SDS011;27051;50.376;19.152;2023-04-24T03:12:07;25.50;;;13.30;;
41305;SDS011;27051;50.376;19.152;2023-04-24T03:14:34;23.80;;;13.40;;
41305;SDS011;27051;50.376;19.152;2023-04-24T03:17:00;22.10;;;12.30;;
41305;SDS011;27051;50.376;19.152;2023-04-24T03:19:26;28.70;;;13.10;;
41305;SDS011;27051;50.376;19.152;2023-04-24T03:21:53;23.10;;;12.30;;
41305;SDS011;27051;50.376;19.152;2023-04-24T03:24:19;23.30;;;11.40;;
41305;SDS011;27051;50.376;19.152;2023-04-24T03:26:46;25.20;;;11.70;;
41305;SDS011;27051;50.376;19.152;2023-04-24T03:29:12;21.80;;;11.20;;
41305;SDS011;27051;50.376;19.152;2023-04-24T03:31:39;21.20;;;10.80;;
41305;SDS011;27051;50.376;19.152;2023-04-24T03:34:05;20.40;;;11.00;;
41305;SDS011;27051;50.376;19.152;2023-04-24T03:36:31;22.40;;;10.40;;
41305;SDS011;27051;50.376;19.152;2023-04-24T03:38:58;21.00;;;11.00;;
41305;SDS011;27051;50.376;19.152;2023-04-24T03:41:25;21.30;;;11.80;;
41305;SDS011;27051;50.376;19.152;2023-04-24T03:43:51;19.30;;;11.20;;
41305;SDS011;27051;50.376;19.152;2023-04-24T03:46:17;20.70;;;11.90;;
41305;SDS011;27051;50.376;19.152;2023-04-24T03:48:44;20.00;;;10.90;;
41305;SDS011;27051;50.376;19.152;2023-04-24T03:51:10;22.70;;;11.70;;
41305;SDS011;27051;50.376;19.152;2023-04-24T03:53:37;21.50;;;12.00;;
41305;SDS011;27051;50.376;19.152;2023-04-24T03:56:03;22.70;;;11.80;;
41305;SDS011;27051;50.376;19.152;2023-04-24T03:58:30;21.40;;;11.50;;
41305;SDS011;27051;50.376;19.152;2023-04-24T04:00:56;22.30;;;12.80;;
41305;SDS011;27051;50.376;19.152;2023-04-24T04:03:23;22.60;;;11.30;;
41305;SDS011;27051;50.376;19.152;2023-04-24T04:05:50;24.20;;;11.70;;
41305;SDS011;27051;50.376;19.152;2023-04-24T04:08:16;24.30;;;13.20;;
41305;SDS011;27051;50.376;19.152;2023-04-24T04:10:42;21.60;;;12.50;;
41305;SDS011;27051;50.376;19.152;2023-04-24T04:13:09;24.60;;;12.50;;
41305;SDS011;27051;50.376;19.152;2023-04-24T04:15:35;30.00;;;15.40;;
41305;SDS011;27051;50.376;19.152;2023-04-24T04:18:02;25.00;;;13.40;;
41305;SDS011;27051;50.376;19.152;2023-04-24T04:20:28;25.40;;;13.30;;
41305;SDS011;27051;50.376;19.152;2023-04-24T04:22:55;26.80;;;14.80;;
41305;SDS011;27051;50.376;19.152;2023-04-24T04:25:22;27.70;;;14.50;;
41305;SDS011;27051;50.376;19.152;2023-04-24T04:27:48;39.90;;;18.20;;
41305;SDS011;27051;50.376;19.152;2023-04-24T04:30:15;51.70;;;23.40;;
41305;SDS011;27051;50.376;19.152;2023-04-24T04:32:41;52.30;;;19.40;;
41305;SDS011;27051;50.376;19.152;2023-04-24T04:35:08;52.50;;;21.60;;
41305;SDS011;27051;50.376;19.152;2023-04-24T04:37:34;47.00;;;21.40;;
41305;SDS011;27051;50.376;19.152;2023-04-24T04:40:02;47.10;;;19.90;;
41305;SDS011;27051;50.376;19.152;2023-04-24T04:42:30;29.20;;;14.60;;
41305;SDS011;27051;50.376;19.152;2023-04-24T04:44:57;31.30;;;14.20;;
41305;SDS011;27051;50.376;19.152;2023-04-24T04:47:23;39.80;;;15.50;;
41305;SDS011;27051;50.376;19.152;2023-04-24T04:49:50;34.10;;;15.10;;
41305;SDS011;27051;50.376;19.152;2023-04-24T04:52:17;31.50;;;13.20;;
41305;SDS011;27051;50.376;19.152;2023-04-24T04:54:44;24.70;;;11.30;;
41305;SDS011;27051;50.376;19.152;2023-04-24T04:57:11;21.60;;;9.70;;
41305;SDS011;27051;50.376;19.152;2023-04-24T04:59:38;22.60;;;10.20;;
41305;SDS011;27051;50.376;19.152;2023-04-24T05:02:04;22.00;;;10.20;;
41305;SDS011;27051;50.376;19.152;2023-04-24T05:04:32;17.70;;;8.70;;
41305;SDS011;27051;50.376;19.152;2023-04-24T05:06:59;17.30;;;8.70;;
41305;SDS011;27051;50.376;19.152;2023-04-24T05:09:25;17.30;;;8.90;;
41305;SDS011;27051;50.376;19.152;2023-04-24T05:11:53;18.10;;;9.70;;
41305;SDS011;27051;50.376;19.152;2023-04-24T05:14:20;15.00;;;8.20;;
41305;SDS011;27051;50.376;19.152;2023-04-24T05:16:46;14.80;;;8.10;;
41305;SDS011;27051;50.376;19.152;2023-04-24T05:19:13;16.50;;;8.50;;
41305;SDS011;27051;50.376;19.152;2023-04-24T05:21:40;21.40;;;9.40;;
41305;SDS011;27051;50.376;19.152;2023-04-24T05:24:10;16.60;;;8.00;;
41305;SDS011;27051;50.376;19.152;2023-04-24T05:26:37;15.30;;;8.40;;
41305;SDS011;27051;50.376;19.152;2023-04-24T05:29:03;17.00;;;8.20;;
41305;SDS011;27051;50.376;19.152;2023-04-24T05:31:29;15.60;;;8.30;;
41305;SDS011;27051;50.376;19.152;2023-04-24T05:33:56;14.70;;;7.60;;
41305;SDS011;27051;50.376;19.152;2023-04-24T05:36:23;16.80;;;7.70;;
41305;SDS011;27051;50.376;19.152;2023-04-24T05:38:49;16.70;;;8.10;;
41305;SDS011;27051;50.376;19.152;2023-04-24T05:41:15;14.70;;;7.90;;
41305;SDS011;27051;50.376;19.152;2023-04-24T05:43:42;18.80;;;9.10;;
41305;SDS011;27051;50.376;19.152;2023-04-24T05:46:08;13.80;;;7.80;;
41305;SDS011;27051;50.376;19.152;2023-04-24T05:48:35;18.60;;;8.40;;
41305;SDS011;27051;50.376;19.152;2023-04-24T05:51:02;15.00;;;7.80;;
41305;SDS011;27051;50.376;19.152;2023-04-24T05:53:28;18.20;;;7.90;;
41305;SDS011;27051;50.376;19.152;2023-04-24T05:55:55;17.80;;;7.90;;
41305;SDS011;27051;50.376;19.152;2023-04-24T05:58:21;15.30;;;7.70;;
41305;SDS011;27051;50.376;19.152;2023-04-24T06:00:48;14.60;;;8.30;;
41305;SDS011;27051;50.376;19.152;2023-04-24T06:03:16;11.10;;;8.00;;
41305;SDS011;27051;50.376;19.152;2023-04-24T06:05:43;15.50;;;7.70;;
41305;SDS011;27051;50.376;19.152;2023-04-24T06:08:10;15.10;;;7.90;;
41305;SDS011;27051;50.376;19.152;2023-04-24T06:10:37;14.90;;;8.10;;
41305;SDS011;27051;50.376;19.152;2023-04-24T06:13:03;14.60;;;7.70;;
41305;SDS011;27051;50.376;19.152;2023-04-24T06:15:30;14.60;;;7.00;;
41305;SDS011;27051;50.376;19.152;2023-04-24T06:17:57;15.40;;;7.30;;
41305;SDS011;27051;50.376;19.152;2023-04-24T06:20:24;15.90;;;7.00;;
41305;SDS011;27051;50.376;19.152;2023-04-24T06:22:52;16.90;;;7.00;;
41305;SDS011;27051;50.376;19.152;2023-04-24T06:25:19;14.70;;;7.10;;
41305;SDS011;27051;50.376;19.152;2023-04-24T06:27:46;12.40;;;6.90;;
41305;SDS011;27051;50.376;19.152;2023-04-24T06:30:13;15.30;;;7.00;;
41305;SDS011;27051;50.376;19.152;2023-04-24T06:32:39;12.20;;;6.60;;
41305;SDS011;27051;50.376;19.152;2023-04-24T06:35:06;12.70;;;6.30;;
41305;SDS011;27051;50.376;19.152;2023-04-24T06:37:34;14.00;;;6.10;;
41305;SDS011;27051;50.376;19.152;2023-04-24T06:40:00;12.80;;;6.50;;
41305;SDS011;27051;50.376;19.152;2023-04-24T06:42:27;11.20;;;6.40;;
41305;SDS011;27051;50.376;19.152;2023-04-24T06:44:54;13.80;;;5.50;;
41305;SDS011;27051;50.376;19.152;2023-04-24T06:47:21;12.50;;;5.90;;
41305;SDS011;27051;50.376;19.152;2023-04-24T06:49:47;11.70;;;6.50;;
41305;SDS011;27051;50.376;19.152;2023-04-24T06:52:14;12.00;;;6.00;;
41305;SDS011;27051;50.376;19.152;2023-04-24T06:54:41;12.90;;;5.90;;
41305;SDS011;27051;50.376;19.152;2023-04-24T06:57:08;12.20;;;6.20;;
41305;SDS011;27051;50.376;19.152;2023-04-24T06:59:34;13.30;;;5.90;;
41305;SDS011;27051;50.376;19.152;2023-04-24T07:02:01;9.60;;;6.10;;
41305;SDS011;27051;50.376;19.152;2023-04-24T07:04:29;10.30;;;5.90;;
41305;SDS011;27051;50.376;19.152;2023-04-24T07:06:56;11.80;;;6.10;;
41305;SDS011;27051;50.376;19.152;2023-04-24T07:09:22;10.30;;;6.50;;
41305;SDS011;27051;50.376;19.152;2023-04-24T07:11:50;12.50;;;7.00;;
41305;SDS011;27051;50.376;19.152;2023-04-24T07:14:17;21.60;;;11.60;;
41305;SDS011;27051;50.376;19.152;2023-04-24T07:16:44;11.20;;;5.60;;
41305;SDS011;27051;50.376;19.152;2023-04-24T07:19:11;11.10;;;5.30;;
41305;SDS011;27051;50.376;19.152;2023-04-24T07:21:38;15.30;;;6.30;;
41305;SDS011;27051;50.376;19.152;2023-04-24T07:24:06;8.60;;;5.60;;
41305;SDS011;27051;50.376;19.152;2023-04-24T07:26:32;9.80;;;5.00;;
41305;SDS011;27051;50.376;19.152;2023-04-24T07:28:59;8.40;;;5.50;;
41305;SDS011;27051;50.376;19.152;2023-04-24T07:31:26;7.90;;;5.50;;
41305;SDS011;27051;50.376;19.152;2023-04-24T07:33:53;8.30;;;5.70;;
41305;SDS011;27051;50.376;19.152;2023-04-24T07:36:20;9.80;;;5.30;;
41305;SDS011;27051;50.376;19.152;2023-04-24T07:38:46;10.50;;;5.40;;
41305;SDS011;27051;50.376;19.152;2023-04-24T07:41:13;10.50;;;5.70;;
41305;SDS011;27051;50.376;19.152;2023-04-24T07:43:41;7.40;;;5.10;;
41305;SDS011;27051;50.376;19.152;2023-04-24T07:46:08;8.60;;;5.10;;
41305;SDS011;27051;50.376;19.152;2023-04-24T07:48:35;11.20;;;5.80;;
41305;SDS011;27051;50.376;19.152;2023-04-24T07:51:02;6.70;;;5.10;;
41305;SDS011;27051;50.376;19.152;2023-04-24T07:53:29;15.10;;;6.10;;
41305;SDS011;27051;50.376;19.152;2023-04-24T07:55:58;8.80;;;5.10;;
41305;SDS011;27051;50.376;19.152;2023-04-24T07:58:24;10.40;;;6.00;;
41305;SDS011;27051;50.376;19.152;2023-04-24T08:00:51;8.50;;;5.50;;
41305;SDS011;27051;50.376;19.152;2023-04-24T08:03:17;11.30;;;5.90;;
41305;SDS011;27051;50.376;19.152;2023-04-24T08:05:43;13.80;;;6.60;;
41305;SDS011;27051;50.376;19.152;2023-04-24T08:08:10;11.40;;;5.80;;
41305;SDS011;27051;50.376;19.152;2023-04-24T08:10:36;14.30;;;6.10;;
41305;SDS011;27051;50.376;19.152;2023-04-24T08:13:03;11.70;;;5.90;;
41305;SDS011;27051;50.376;19.152;2023-04-24T08:15:29;11.00;;;5.70;;
41305;SDS011;27051;50.376;19.152;2023-04-24T08:17:56;10.60;;;5.10;;
41305;SDS011;27051;50.376;19.152;2023-04-24T08:20:23;12.00;;;6.10;;
41305;SDS011;27051;50.376;19.152;2023-04-24T08:22:49;13.30;;;6.30;;
41305;SDS011;27051;50.376;19.152;2023-04-24T08:25:16;9.30;;;5.50;;
41305;SDS011;27051;50.376;19.152;2023-04-24T08:27:43;9.60;;;5.70;;
41305;SDS011;27051;50.376;19.152;2023-04-24T08:30:09;8.80;;;5.50;;
41305;SDS011;27051;50.376;19.152;2023-04-24T08:32:36;11.50;;;5.60;;
41305;SDS011;27051;50.376;19.152;2023-04-24T08:35:03;10.70;;;5.60;;
41305;SDS011;27051;50.376;19.152;2023-04-24T08:37:30;10.40;;;5.60;;
41305;SDS011;27051;50.376;19.152;2023-04-24T08:39:56;13.00;;;6.40;;
41305;SDS011;27051;50.376;19.152;2023-04-24T08:42:23;12.20;;;5.60;;
41305;SDS011;27051;50.376;19.152;2023-04-24T08:44:49;10.90;;;5.80;;
41305;SDS011;27051;50.376;19.152;2023-04-24T08:47:16;11.20;;;6.10;;
41305;SDS011;27051;50.376;19.152;2023-04-24T08:49:43;10.60;;;5.80;;
41305;SDS011;27051;50.376;19.152;2023-04-24T08:52:11;12.50;;;6.00;;
41305;SDS011;27051;50.376;19.152;2023-04-24T08:54:38;8.60;;;5.70;;
41305;SDS011;27051;50.376;19.152;2023-04-24T08:57:06;8.80;;;5.40;;
41305;SDS011;27051;50.376;19.152;2023-04-24T08:59:33;13.70;;;6.00;;
41305;SDS011;27051;50.376;19.152;2023-04-24T09:02:00;9.80;;;5.10;;
41305;SDS011;27051;50.376;19.152;2023-04-24T09:04:29;11.20;;;5.80;;
41305;SDS011;27051;50.376;19.152;2023-04-24T09:06:57;9.60;;;6.00;;
41305;SDS011;27051;50.376;19.152;2023-04-24T09:09:24;13.40;;;6.20;;
41305;SDS011;27051;50.376;19.152;2023-04-24T09:11:52;8.90;;;5.50;;
41305;SDS011;27051;50.376;19.152;2023-04-24T09:14:19;10.90;;;5.80;;
41305;SDS011;27051;50.376;19.152;2023-04-24T09:16:46;13.10;;;6.30;;
41305;SDS011;27051;50.376;19.152;2023-04-24T09:19:13;9.40;;;5.70;;
41305;SDS011;27051;50.376;19.152;2023-04-24T09:21:39;9.60;;;5.70;;
41305;SDS011;27051;50.376;19.152;2023-04-24T09:24:06;9.20;;;5.50;;
41305;SDS011;27051;50.376;19.152;2023-04-24T09:26:41;11.00;;;5.60;;
41305;SDS011;27051;50.376;19.152;2023-04-24T09:29:14;9.90;;;4.90;;
41305;SDS011;27051;50.376;19.152;2023-04-24T09:31:45;9.80;;;5.00;;
41305;SDS011;27051;50.376;19.152;2023-04-24T09:34:12;10.10;;;5.40;;
41305;SDS011;27051;50.376;19.152;2023-04-24T09:36:47;9.70;;;5.40;;
41305;SDS011;27051;50.376;19.152;2023-04-24T09:39:14;7.50;;;5.00;;
41305;SDS011;27051;50.376;19.152;2023-04-24T09:41:49;6.60;;;4.80;;
41305;SDS011;27051;50.376;19.152;2023-04-24T09:44:20;12.50;;;4.90;;
41305;SDS011;27051;50.376;19.152;2023-04-24T09:46:50;8.90;;;5.20;;
41305;SDS011;27051;50.376;19.152;2023-04-24T09:49:26;9.00;;;4.80;;
41305;SDS011;27051;50.376;19.152;2023-04-24T09:52:10;10.90;;;5.60;;
41305;SDS011;27051;50.376;19.152;2023-04-24T09:54:38;9.10;;;5.10;;
41305;SDS011;27051;50.376;19.152;2023-04-24T09:57:04;8.30;;;4.40;;
41305;SDS011;27051;50.376;19.152;2023-04-24T09:59:33;6.00;;;4.10;;
41305;SDS011;27051;50.376;19.152;2023-04-24T10:02:00;6.50;;;4.30;;
41305;SDS011;27051;50.376;19.152;2023-04-24T10:04:27;6.00;;;4.00;;
41305;SDS011;27051;50.376;19.152;2023-04-24T10:06:55;8.50;;;4.70;;
41305;SDS011;27051;50.376;19.152;2023-04-24T10:09:23;6.20;;;3.90;;
41305;SDS011;27051;50.376;19.152;2023-04-24T10:11:52;5.10;;;3.60;;
41305;SDS011;27051;50.376;19.152;2023-04-24T10:14:21;4.90;;;4.00;;
41305;SDS011;27051;50.376;19.152;2023-04-24T10:16:49;7.20;;;3.90;;
41305;SDS011;27051;50.376;19.152;2023-04-24T10:19:18;7.60;;;4.30;;
41305;SDS011;27051;50.376;19.152;2023-04-24T10:21:45;6.30;;;3.90;;
41305;SDS011;27051;50.376;19.152;2023-04-24T10:24:15;5.60;;;3.70;;
41305;SDS011;27051;50.376;19.152;2023-04-24T10:26:43;7.60;;;3.70;;
41305;SDS011;27051;50.376;19.152;2023-04-24T10:29:17;5.90;;;3.70;;
41305;SDS011;27051;50.376;19.152;2023-04-24T10:31:45;5.10;;;4.30;;
41305;SDS011;27051;50.376;19.152;2023-04-24T10:34:12;4.40;;;3.50;;
41305;SDS011;27051;50.376;19.152;2023-04-24T10:36:43;16.60;;;4.50;;
41305;SDS011;27051;50.376;19.152;2023-04-24T10:39:15;6.10;;;4.00;;
41305;SDS011;27051;50.376;19.152;2023-04-24T10:41:49;7.70;;;4.20;;
41305;SDS011;27051;50.376;19.152;2023-04-24T10:44:16;5.50;;;4.30;;
41305;SDS011;27051;50.376;19.152;2023-04-24T10:46:46;12.80;;;4.80;;
41305;SDS011;27051;50.376;19.152;2023-04-24T10:49:19;11.80;;;6.40;;
41305;SDS011;27051;50.376;19.152;2023-04-24T10:52:01;9.70;;;4.30;;
41305;SDS011;27051;50.376;19.152;2023-04-24T10:54:33;7.80;;;4.30;;
41305;SDS011;27051;50.376;19.152;2023-04-24T10:59:46;5.60;;;4.30;;
41305;SDS011;27051;50.376;19.152;2023-04-24T11:02:14;7.20;;;4.70;;
41305;SDS011;27051;50.376;19.152;2023-04-24T11:04:41;11.30;;;4.80;;
41305;SDS011;27051;50.376;19.152;2023-04-24T11:07:09;6.40;;;4.30;;
41305;SDS011;27051;50.376;19.152;2023-04-24T11:09:36;7.80;;;4.90;;
41305;SDS011;27051;50.376;19.152;2023-04-24T11:12:04;5.10;;;4.20;;
41305;SDS011;27051;50.376;19.152;2023-04-24T11:14:59;7.60;;;4.10;;
41305;SDS011;27051;50.376;19.152;2023-04-24T11:17:33;9.10;;;4.20;;
41305;SDS011;27051;50.376;19.152;2023-04-24T11:20:16;7.50;;;4.40;;
41305;SDS011;27051;50.376;19.152;2023-04-24T11:22:43;7.30;;;4.50;;
41305;SDS011;27051;50.376;19.152;2023-04-24T11:25:10;7.30;;;4.00;;
41305;SDS011;27051;50.376;19.152;2023-04-24T11:27:40;7.40;;;4.30;;
41305;SDS011;27051;50.376;19.152;2023-04-24T11:30:08;7.60;;;3.90;;
41305;SDS011;27051;50.376;19.152;2023-04-24T11:32:36;6.20;;;4.20;;
41305;SDS011;27051;50.376;19.152;2023-04-24T11:37:52;6.70;;;4.60;;
41305;SDS011;27051;50.376;19.152;2023-04-24T11:40:20;9.00;;;4.70;;
41305;SDS011;27051;50.376;19.152;2023-04-24T11:42:47;6.30;;;4.60;;
41305;SDS011;27051;50.376;19.152;2023-04-24T11:45:16;11.60;;;5.30;;
41305;SDS011;27051;50.376;19.152;2023-04-24T11:47:44;8.80;;;5.30;;
41305;SDS011;27051;50.376;19.152;2023-04-24T11:50:12;9.90;;;4.60;;
41305;SDS011;27051;50.376;19.152;2023-04-24T11:52:40;11.20;;;4.60;;
41305;SDS011;27051;50.376;19.152;2023-04-24T11:55:12;7.70;;;4.90;;
41305;SDS011;27051;50.376;19.152;2023-04-24T11:57:49;10.50;;;6.10;;
41305;SDS011;27051;50.376;19.152;2023-04-24T12:00:17;11.80;;;6.20;;
41305;SDS011;27051;50.376;19.152;2023-04-24T12:02:45;9.60;;;5.90;;
41305;SDS011;27051;50.376;19.152;2023-04-24T12:05:21;13.00;;;5.20;;
41305;SDS011;27051;50.376;19.152;2023-04-24T12:07:49;12.20;;;6.00;;
41305;SDS011;27051;50.376;19.152;2023-04-24T12:10:22;10.30;;;5.60;;
41305;SDS011;27051;50.376;19.152;2023-04-24T12:12:50;11.00;;;5.90;;
41305;SDS011;27051;50.376;19.152;2023-04-24T12:15:17;10.80;;;6.10;;
41305;SDS011;27051;50.376;19.152;2023-04-24T12:17:45;11.50;;;5.60;;
41305;SDS011;27051;50.376;19.152;2023-04-24T12:20:12;15.80;;;6.60;;
41305;SDS011;27051;50.376;19.152;2023-04-24T12:22:58;13.90;;;6.50;;
41305;SDS011;27051;50.376;19.152;2023-04-24T12:25:28;9.50;;;6.30;;
41305;SDS011;27051;50.376;19.152;2023-04-24T12:30:30;9.50;;;5.60;;
41305;SDS011;27051;50.376;19.152;2023-04-24T12:32:58;10.00;;;5.80;;
41305;SDS011;27051;50.376;19.152;2023-04-24T12:35:27;10.30;;;5.70;;
41305;SDS011;27051;50.376;19.152;2023-04-24T12:37:54;12.30;;;6.40;;
41305;SDS011;27051;50.376;19.152;2023-04-24T12:40:21;12.00;;;6.20;;
41305;SDS011;27051;50.376;19.152;2023-04-24T12:42:51;7.50;;;5.40;;
41305;SDS011;27051;50.376;19.152;2023-04-24T12:45:18;10.50;;;5.50;;
41305;SDS011;27051;50.376;19.152;2023-04-24T12:47:45;14.40;;;8.10;;
41305;SDS011;27051;50.376;19.152;2023-04-24T12:50:13;12.30;;;6.30;;
41305;SDS011;27051;50.376;19.152;2023-04-24T12:52:40;10.30;;;6.00;;
41305;SDS011;27051;50.376;19.152;2023-04-24T12:55:08;14.10;;;6.40;;
41305;SDS011;27051;50.376;19.152;2023-04-24T12:57:36;10.80;;;5.80;;
41305;SDS011;27051;50.376;19.152;2023-04-24T13:00:05;9.50;;;5.40;;
41305;SDS011;27051;50.376;19.152;2023-04-24T13:02:33;10.40;;;6.20;;
41305;SDS011;27051;50.376;19.152;2023-04-24T13:05:00;5.70;;;5.00;;
41305;SDS011;27051;50.376;19.152;2023-04-24T13:07:27;9.10;;;5.40;;
41305;SDS011;27051;50.376;19.152;2023-04-24T13:09:54;9.30;;;5.60;;
41305;SDS011;27051;50.376;19.152;2023-04-24T13:12:21;11.30;;;6.50;;
41305;SDS011;27051;50.376;19.152;2023-04-24T13:14:48;8.70;;;5.00;;
41305;SDS011;27051;50.376;19.152;2023-04-24T13:17:21;6.50;;;5.00;;
41305;SDS011;27051;50.376;19.152;2023-04-24T13:19:48;5.90;;;5.30;;
41305;SDS011;27051;50.376;19.152;2023-04-24T13:22:16;10.40;;;6.00;;
41305;SDS011;27051;50.376;19.152;2023-04-24T13:24:43;8.70;;;6.30;;
41305;SDS011;27051;50.376;19.152;2023-04-24T13:27:10;11.60;;;7.60;;
41305;SDS011;27051;50.376;19.152;2023-04-24T13:29:36;8.30;;;6.00;;
41305;SDS011;27051;50.376;19.152;2023-04-24T13:32:03;7.50;;;4.80;;
41305;SDS011;27051;50.376;19.152;2023-04-24T13:34:30;4.10;;;3.70;;
41305;SDS011;27051;50.376;19.152;2023-04-24T13:36:57;6.50;;;3.60;;
41305;SDS011;27051;50.376;19.152;2023-04-24T13:39:24;4.60;;;3.00;;
41305;SDS011;27051;50.376;19.152;2023-04-24T13:41:52;4.40;;;3.20;;
41305;SDS011;27051;50.376;19.152;2023-04-24T13:44:19;6.00;;;2.80;;
41305;SDS011;27051;50.376;19.152;2023-04-24T13:46:47;4.60;;;3.20;;
41305;SDS011;27051;50.376;19.152;2023-04-24T13:49:15;6.10;;;3.20;;
41305;SDS011;27051;50.376;19.152;2023-04-24T13:51:42;4.90;;;3.30;;
41305;SDS011;27051;50.376;19.152;2023-04-24T13:54:09;5.20;;;4.00;;
41305;SDS011;27051;50.376;19.152;2023-04-24T13:56:35;5.60;;;3.20;;
41305;SDS011;27051;50.376;19.152;2023-04-24T13:59:02;5.60;;;3.90;;
41305;SDS011;27051;50.376;19.152;2023-04-24T14:01:29;7.40;;;4.50;;
41305;SDS011;27051;50.376;19.152;2023-04-24T14:03:55;7.20;;;4.40;;
41305;SDS011;27051;50.376;19.152;2023-04-24T14:06:22;5.50;;;4.40;;
41305;SDS011;27051;50.376;19.152;2023-04-24T14:08:49;8.20;;;4.40;;
41305;SDS011;27051;50.376;19.152;2023-04-24T14:11:16;6.90;;;4.60;;
41305;SDS011;27051;50.376;19.152;2023-04-24T14:13:44;8.80;;;4.80;;
41305;SDS011;27051;50.376;19.152;2023-04-24T14:16:11;8.20;;;4.70;;
41305;SDS011;27051;50.376;19.152;2023-04-24T14:18:38;10.20;;;5.10;;
41305;SDS011;27051;50.376;19.152;2023-04-24T14:21:04;12.70;;;6.00;;
41305;SDS011;27051;50.376;19.152;2023-04-24T14:23:31;8.70;;;5.20;;
41305;SDS011;27051;50.376;19.152;2023-04-24T14:25:58;9.00;;;5.80;;
41305;SDS011;27051;50.376;19.152;2023-04-24T14:28:25;9.70;;;6.20;;
41305;SDS011;27051;50.376;19.152;2023-04-24T14:30:52;10.30;;;5.70;;